createdAt,value
2022-09-18T00:00:58.621Z,98959.13
2022-09-18T00:03:25.633Z,98962.84
2022-09-18T00:05:52.298Z,98962.28
2022-09-18T00:08:19.002Z,98964.19
2022-09-18T00:10:48.785Z,98953.78
2022-09-18T00:16:00.260Z,98950.09
2022-09-18T00:18:27.085Z,98945.84
2022-09-18T00:20:53.813Z,98951.25
2022-09-18T00:23:20.873Z,98944.94
2022-09-18T00:25:47.555Z,98949.91
2022-09-18T00:28:14.259Z,98943.44
2022-09-18T00:30:41.317Z,98941.75
2022-09-18T00:33:08.026Z,98951.03
2022-09-18T00:35:34.845Z,98954.09
2022-09-18T00:38:01.845Z,98953.00
2022-09-18T00:40:28.595Z,98951.19
2022-09-18T00:42:55.554Z,98945.66
2022-09-18T00:45:22.703Z,98951.72
2022-09-18T00:47:49.450Z,98949.28
2022-09-18T00:50:23.696Z,98950.00
2022-09-18T00:52:58.132Z,98945.97
2022-09-18T00:55:27.773Z,98943.72
2022-09-18T00:57:55.726Z,98944.00
2022-09-18T01:00:22.485Z,98954.22
2022-09-18T01:02:49.393Z,98953.50
2022-09-18T01:05:17.577Z,98956.09
2022-09-18T01:07:59.785Z,98960.44
2022-09-18T01:10:53.047Z,98965.91
2022-09-18T01:13:19.835Z,98968.91
2022-09-18T01:15:46.916Z,98966.81
2022-09-18T01:18:32.187Z,98975.97
2022-09-18T01:20:59.210Z,98978.84
2022-09-18T01:23:49.315Z,98983.28
2022-09-18T01:26:16.319Z,98983.62
2022-09-18T01:28:48.349Z,98986.78
2022-09-18T01:31:19.539Z,98991.34
2022-09-18T01:33:53.290Z,99001.84
2022-09-18T01:36:21.562Z,98998.16
2022-09-18T01:38:53.058Z,99012.88
2022-09-18T01:41:23.983Z,99016.06
2022-09-18T01:43:54.856Z,99028.41
2022-09-18T01:46:21.648Z,99026.59
2022-09-18T01:48:53.482Z,99037.94
2022-09-18T01:51:21.546Z,99039.69
2022-09-18T01:53:51.067Z,99056.13
2022-09-18T01:56:20.184Z,99046.47
2022-09-18T01:58:47.398Z,99053.28
2022-09-18T02:01:17.914Z,99058.72
2022-09-18T02:03:46.856Z,99066.66
2022-09-18T02:06:14.711Z,99064.63
2022-09-18T02:08:45.930Z,99073.59
2022-09-18T02:11:13.855Z,99068.97
2022-09-18T02:13:47.098Z,99075.97
2022-09-18T02:16:18.180Z,99074.38
2022-09-18T02:18:46.096Z,99068.69
2022-09-18T02:21:13.823Z,99077.91
2022-09-18T02:23:40.945Z,99077.66
2022-09-18T02:26:07.680Z,99089.97
2022-09-18T02:28:35.922Z,99093.50
2022-09-18T02:31:03.209Z,99098.78
2022-09-18T02:33:36.864Z,99096.94
2022-09-18T02:36:07.387Z,99097.66
2022-09-18T02:38:41.331Z,99109.00
2022-09-18T02:41:23.982Z,99110.63
2022-09-18T02:43:59.297Z,99105.38
2022-09-18T02:46:27.573Z,99112.53
2022-09-18T02:48:57.807Z,99117.72
2022-09-18T02:51:28.876Z,99114.16
2022-09-18T02:54:19.718Z,99116.75
2022-09-18T02:57:06.776Z,99116.75
2022-09-18T02:59:40.986Z,99120.34
2022-09-18T03:02:08.022Z,99120.19
2022-09-18T03:04:35.633Z,99117.59
2022-09-18T03:07:02.425Z,99127.31
2022-09-18T03:09:30.110Z,99121.09
2022-09-18T03:11:57.287Z,99122.88
2022-09-18T03:14:25.401Z,99133.22
2022-09-18T03:16:52.092Z,99133.97
2022-09-18T03:19:19.451Z,99134.28
2022-09-18T03:21:46.328Z,99139.28
2022-09-18T03:24:13.100Z,99136.78
2022-09-18T03:26:40.632Z,99143.50
2022-09-18T03:29:10.797Z,99146.56
2022-09-18T03:31:38.080Z,99148.94
2022-09-18T03:34:06.977Z,99159.47
2022-09-18T03:36:34.272Z,99150.56
2022-09-18T03:39:02.217Z,99157.69
2022-09-18T03:41:30.402Z,99157.69
2022-09-18T03:43:57.365Z,99165.66
2022-09-18T03:46:24.476Z,99166.25
2022-09-18T03:48:52.302Z,99161.16
2022-09-18T03:51:20.369Z,99161.00
2022-09-18T03:53:47.540Z,99170.59
2022-09-18T03:56:16.943Z,99173.41
2022-09-18T03:58:44.036Z,99180.28
2022-09-18T04:01:11.963Z,99180.16
2022-09-18T04:03:39.453Z,99172.19
2022-09-18T04:06:16.205Z,99184.50
2022-09-18T04:08:45.107Z,99186.44
2022-09-18T04:11:12.034Z,99182.78
2022-09-18T04:13:38.817Z,99182.09
2022-09-18T04:16:06.046Z,99189.78
2022-09-18T04:18:32.836Z,99183.81
2022-09-18T04:21:01.111Z,99187.44
2022-09-18T04:23:28.288Z,99192.41
2022-09-18T04:25:56.966Z,99188.84
2022-09-18T04:28:25.032Z,99193.28
2022-09-18T04:30:52.403Z,99190.69
2022-09-18T04:33:19.311Z,99199.25
2022-09-18T04:35:47.478Z,99191.50
2022-09-18T04:38:14.681Z,99188.88
2022-09-18T04:40:41.614Z,99197.56
2022-09-18T04:43:10.428Z,99190.81
2022-09-18T04:45:39.402Z,99194.34
2022-09-18T04:48:06.174Z,99201.34
2022-09-18T04:50:33.030Z,99195.19
2022-09-18T04:53:03.484Z,99202.16
2022-09-18T04:55:31.608Z,99215.06
2022-09-18T04:57:58.673Z,99213.31
2022-09-18T05:00:26.205Z,99222.75
2022-09-18T05:02:53.320Z,99223.78
2022-09-18T05:05:20.590Z,99220.81
2022-09-18T05:07:47.812Z,99226.31
2022-09-18T05:10:15.753Z,99225.28
2022-09-18T05:12:42.604Z,99228.81
2022-09-18T05:15:10.129Z,99223.44
2022-09-18T05:17:40.271Z,99232.25
2022-09-18T05:20:08.885Z,99233.06
2022-09-18T05:22:36.939Z,99231.41
2022-09-18T05:25:04.180Z,99238.19
2022-09-18T05:27:30.999Z,99228.84
2022-09-18T05:29:58.209Z,99232.06
2022-09-18T05:32:26.429Z,99228.56
2022-09-18T05:34:53.184Z,99227.25
2022-09-18T05:37:20.244Z,99235.78
2022-09-18T05:39:47.532Z,99234.00
2022-09-18T05:42:14.235Z,99236.56
2022-09-18T05:44:43.290Z,99247.19
2022-09-18T05:47:12.486Z,99235.75
2022-09-18T05:49:39.290Z,99234.00
2022-09-18T05:52:06.555Z,99235.06
2022-09-18T05:54:36.196Z,99239.25
2022-09-18T05:57:02.925Z,99239.84
2022-09-18T05:59:30.835Z,99242.03
2022-09-18T06:02:01.085Z,99242.59
2022-09-18T06:04:31.447Z,99235.72
2022-09-18T06:07:01.568Z,99246.41
2022-09-18T06:09:28.683Z,99239.34
2022-09-18T06:11:55.556Z,99253.34
2022-09-18T06:14:22.401Z,99253.34
2022-09-18T06:16:55.996Z,99254.97
2022-09-18T06:19:22.715Z,99254.75
2022-09-18T06:21:51.639Z,99253.81
2022-09-18T06:24:18.775Z,99259.75
2022-09-18T06:26:45.645Z,99263.13
2022-09-18T06:29:12.621Z,99263.28
2022-09-18T06:31:40.616Z,99262.81
2022-09-18T06:34:07.716Z,99271.91
2022-09-18T06:36:34.703Z,99269.13
2022-09-18T06:39:03.466Z,99266.06
2022-09-18T06:41:30.297Z,99273.81
2022-09-18T06:43:57.441Z,99268.34
2022-09-18T06:46:24.842Z,99266.59
2022-09-18T06:48:52.456Z,99257.91
2022-09-18T06:51:19.481Z,99256.94
2022-09-18T06:53:51.486Z,99248.94
2022-09-18T06:56:19.485Z,99257.47
2022-09-18T06:58:47.679Z,99263.34
2022-09-18T07:01:15.433Z,99249.66
2022-09-18T07:03:42.645Z,99254.91
2022-09-18T07:06:10.251Z,99242.19
2022-09-18T07:08:38.971Z,99252.34
2022-09-18T07:11:07.991Z,99259.06
2022-09-18T07:13:37.764Z,99273.72
2022-09-18T07:16:05.340Z,99263.75
2022-09-18T07:18:32.670Z,99265.53
2022-09-18T07:20:59.866Z,99264.97
2022-09-18T07:23:30.972Z,99268.25
2022-09-18T07:25:59.322Z,99279.03
2022-09-18T07:28:26.823Z,99272.44
2022-09-18T07:30:54.397Z,99279.44
2022-09-18T07:33:21.253Z,99286.75
2022-09-18T07:35:48.457Z,99286.97
2022-09-18T07:38:16.372Z,99286.69
2022-09-18T07:40:45.581Z,99295.47
2022-09-18T07:43:12.678Z,99294.81
2022-09-18T07:45:42.043Z,99293.19
2022-09-18T07:48:09.784Z,99307.81
2022-09-18T07:50:37.875Z,99313.31
2022-09-18T07:53:05.461Z,99305.44
2022-09-18T07:55:34.288Z,99301.28
2022-09-18T07:58:04.795Z,99293.56
2022-09-18T08:00:34.929Z,99305.94
2022-09-18T08:03:03.327Z,99313.69
2022-09-18T08:05:33.245Z,99307.34
2022-09-18T08:08:06.879Z,99309.88
2022-09-18T08:10:34.535Z,99316.75
2022-09-18T08:13:03.104Z,99314.37
2022-09-18T08:18:20.575Z,99324.97
2022-09-18T08:20:47.788Z,99324.19
2022-09-18T08:23:15.117Z,99316.66
2022-09-18T08:25:43.486Z,99330.41
2022-09-18T08:28:10.338Z,99323.28
2022-09-18T08:30:38.222Z,99323.16
2022-09-18T08:33:06.490Z,99325.22
2022-09-18T08:35:33.636Z,99323.84
2022-09-18T08:38:01.100Z,99330.44
2022-09-18T08:40:39.864Z,99308.66
2022-09-18T08:43:21.096Z,99329.59
2022-09-18T08:46:00.799Z,99341.12
2022-09-18T08:48:29.528Z,99316.34
2022-09-18T08:51:09.933Z,99336.13
2022-09-18T08:53:39.132Z,99340.44
2022-09-18T08:56:07.226Z,99342.47
2022-09-18T08:58:35.694Z,99342.00
2022-09-18T09:01:13.595Z,99344.50
2022-09-18T09:03:59.624Z,99352.00
2022-09-18T09:06:29.521Z,99348.78
2022-09-18T09:09:00.519Z,99344.31
2022-09-18T09:11:39.301Z,99348.66
2022-09-18T09:14:10.660Z,99347.22
2022-09-18T09:16:41.588Z,99348.47
2022-09-18T09:19:15.279Z,99349.28
2022-09-18T09:21:42.056Z,99353.72
2022-09-18T09:24:09.083Z,99346.44
2022-09-18T09:26:36.972Z,99338.47
2022-09-18T09:29:31.531Z,99339.19
2022-09-18T09:32:18.223Z,99341.97
2022-09-18T09:34:46.720Z,99342.88
2022-09-18T09:37:22.251Z,99351.00
2022-09-18T09:39:54.471Z,99347.59
2022-09-18T09:42:26.396Z,99343.78
2022-09-18T09:45:24.010Z,99343.06
2022-09-18T09:47:54.151Z,99355.72
2022-09-18T09:50:33.130Z,99345.97
2022-09-18T09:53:04.618Z,99349.28
2022-09-18T09:55:32.162Z,99363.84
2022-09-18T09:58:03.329Z,99364.47
2022-09-18T10:01:05.636Z,99359.69
2022-09-18T10:03:51.910Z,99359.03
2022-09-18T10:06:40.978Z,99367.28
2022-09-18T10:09:14.354Z,99371.62
2022-09-18T10:11:43.132Z,99377.88
2022-09-18T10:14:11.785Z,99385.53
2022-09-18T10:16:43.033Z,99383.22
2022-09-18T10:19:11.354Z,99393.72
2022-09-18T10:21:38.445Z,99373.66
2022-09-18T10:24:11.065Z,99374.25
2022-09-18T10:26:39.864Z,99374.41
2022-09-18T10:29:08.068Z,99377.28
2022-09-18T10:32:07.030Z,99375.16
2022-09-18T10:34:41.069Z,99374.59
2022-09-18T10:37:14.074Z,99373.38
2022-09-18T10:39:51.722Z,99385.13
2022-09-18T10:42:19.552Z,99368.63
2022-09-18T10:44:51.663Z,99376.16
2022-09-18T10:47:25.999Z,99377.31
2022-09-18T10:49:57.842Z,99366.19
2022-09-18T10:52:27.004Z,99360.81
2022-09-18T10:54:58.144Z,99372.69
2022-09-18T10:57:38.675Z,99373.56
2022-09-18T11:00:27.178Z,99374.16
2022-09-18T11:03:15.083Z,99369.91
2022-09-18T11:05:55.877Z,99372.22
2022-09-18T11:08:27.059Z,99382.50
2022-09-18T11:10:59.430Z,99370.94
2022-09-18T11:13:26.851Z,99375.03
2022-09-18T11:15:55.762Z,99381.25
2022-09-18T11:18:23.553Z,99372.56
2022-09-18T11:20:52.171Z,99374.28
2022-09-18T11:23:19.390Z,99391.03
2022-09-18T11:25:47.190Z,99385.69
2022-09-18T11:28:21.944Z,99381.75
2022-09-18T11:31:19.302Z,99374.81
2022-09-18T11:33:48.105Z,99372.97
2022-09-18T11:36:24.658Z,99377.19
2022-09-18T11:38:51.869Z,99375.44
2022-09-18T11:41:27.421Z,99371.75
2022-09-18T11:44:04.817Z,99367.19
2022-09-18T11:46:32.249Z,99375.47
2022-09-18T11:49:04.848Z,99363.72
2022-09-18T11:51:41.505Z,99363.16
2022-09-18T11:54:08.834Z,99363.88
2022-09-18T11:56:39.152Z,99365.84
2022-09-18T11:59:09.916Z,99357.62
2022-09-18T12:01:42.074Z,99357.78
2022-09-18T12:04:41.860Z,99364.53
2022-09-18T12:07:12.028Z,99353.81
2022-09-18T12:09:40.377Z,99355.44
2022-09-18T12:12:11.486Z,99350.88
2022-09-18T12:14:46.332Z,99351.00
2022-09-18T12:17:16.316Z,99354.06
2022-09-18T12:19:48.359Z,99352.28
2022-09-18T12:22:16.539Z,99338.94
2022-09-18T12:24:45.008Z,99346.53
2022-09-18T12:27:31.663Z,99349.00
2022-09-18T12:30:12.080Z,99344.81
2022-09-18T12:32:38.794Z,99357.62
2022-09-18T12:35:17.915Z,99345.87
2022-09-18T12:38:01.244Z,99347.13
2022-09-18T12:40:43.138Z,99356.81
2022-09-18T12:43:36.233Z,99347.22
2022-09-18T12:46:18.343Z,99328.88
2022-09-18T12:48:49.455Z,99346.28
2022-09-18T12:51:24.397Z,99340.38
2022-09-18T12:54:05.849Z,99337.28
2022-09-18T12:56:45.379Z,99328.84
2022-09-18T12:59:21.073Z,99337.56
2022-09-18T13:02:00.518Z,99336.88
2022-09-18T13:04:31.302Z,99339.03
2022-09-18T13:07:01.251Z,99335.22
2022-09-18T13:09:33.116Z,99337.97
2022-09-18T13:12:09.949Z,99339.28
2022-09-18T13:14:38.447Z,99348.47
2022-09-18T13:17:35.546Z,99351.19
2022-09-18T13:20:34.587Z,99352.72
2022-09-18T13:23:01.768Z,99358.56
2022-09-18T13:25:30.387Z,99365.53
2022-09-18T13:27:57.376Z,99351.69
2022-09-18T13:30:25.829Z,99351.25
2022-09-18T13:32:53.675Z,99363.81
2022-09-18T13:35:20.788Z,99381.09
2022-09-18T13:37:48.716Z,99376.25
2022-09-18T13:40:27.760Z,99379.88
2022-09-18T13:42:54.801Z,99394.44
2022-09-18T13:45:23.431Z,99465.97
2022-09-18T13:47:59.444Z,99468.78
2022-09-18T13:50:26.611Z,99473.16
2022-09-18T13:52:57.386Z,99478.53
2022-09-18T13:55:25.451Z,99481.72
2022-09-18T13:57:52.859Z,99489.91
2022-09-18T14:00:19.617Z,99493.53
2022-09-18T14:02:47.201Z,99491.56
2022-09-18T14:05:32.803Z,99482.03
2022-09-18T14:08:04.036Z,99469.94
2022-09-18T14:10:32.208Z,99467.19
2022-09-18T14:13:22.527Z,99456.03
2022-09-18T14:15:56.421Z,99446.16
2022-09-18T14:18:25.215Z,99453.63
2022-09-18T14:20:52.861Z,99450.22
2022-09-18T14:23:35.571Z,99464.75
2022-09-18T14:26:07.768Z,99460.75
2022-09-18T14:28:34.940Z,99471.22
2022-09-18T14:31:12.999Z,99493.69
2022-09-18T14:33:39.790Z,99490.84
2022-09-18T14:36:07.282Z,99487.94
2022-09-18T14:38:41.257Z,99476.50
2022-09-18T14:41:28.637Z,99470.56
2022-09-18T14:43:58.455Z,99492.44
2022-09-18T14:46:25.945Z,99490.59
2022-09-18T14:48:52.835Z,99476.50
2022-09-18T14:51:21.983Z,99483.69
2022-09-18T14:53:50.247Z,99469.84
2022-09-18T14:56:18.399Z,99469.56
2022-09-18T14:58:46.699Z,99458.94
2022-09-18T15:01:17.479Z,99463.09
2022-09-18T15:03:47.813Z,99457.66
2022-09-18T15:06:19.448Z,99458.31
2022-09-18T15:08:46.265Z,99451.19
2022-09-18T15:11:13.368Z,99445.13
2022-09-18T15:13:40.356Z,99439.25
2022-09-18T15:16:07.377Z,99435.78
2022-09-18T15:18:41.911Z,99437.00
2022-09-18T15:21:29.829Z,99438.56
2022-09-18T15:24:02.041Z,99440.00
2022-09-18T15:26:41.844Z,99447.00
2022-09-18T15:29:14.157Z,99454.97
2022-09-18T15:31:41.178Z,99452.25
2022-09-18T15:34:27.481Z,99451.00
2022-09-18T15:36:55.712Z,99450.44
2022-09-18T15:39:41.411Z,99457.22
2022-09-18T15:42:11.520Z,99462.44
2022-09-18T15:44:58.179Z,99475.72
2022-09-18T15:47:39.215Z,99474.50
2022-09-18T15:50:11.683Z,99482.63
2022-09-18T15:52:40.699Z,99463.28
2022-09-18T15:55:10.212Z,99474.44
2022-09-18T15:57:37.706Z,99479.44
2022-09-18T16:00:07.554Z,99472.88
2022-09-18T16:02:39.344Z,99488.31
2022-09-18T16:05:10.180Z,99495.12
2022-09-18T16:07:39.870Z,99490.44
2022-09-18T16:10:28.691Z,99503.28
2022-09-18T16:12:55.432Z,99512.25
2022-09-18T16:15:23.304Z,99508.00
2022-09-18T16:17:54.443Z,99523.56
2022-09-18T16:20:21.594Z,99523.59
2022-09-18T16:22:49.245Z,99525.81
2022-09-18T16:25:20.206Z,99515.47
2022-09-18T16:27:47.205Z,99505.66
2022-09-18T16:30:15.757Z,99499.81
2022-09-18T16:32:42.737Z,99498.91
2022-09-18T16:35:13.116Z,99499.56
2022-09-18T16:37:41.219Z,99497.50
2022-09-18T16:40:18.682Z,99504.47
2022-09-18T16:42:45.882Z,99499.88
2022-09-18T16:45:15.382Z,99496.50
2022-09-18T16:47:44.137Z,99503.47
2022-09-18T16:50:11.849Z,99501.50
2022-09-18T16:52:38.576Z,99497.06
2022-09-18T16:55:05.585Z,99499.88
2022-09-18T16:57:32.558Z,99499.09
2022-09-18T17:00:00.125Z,99502.62
2022-09-18T17:02:26.964Z,99498.06
2022-09-18T17:04:54.117Z,99501.44
2022-09-18T17:07:21.153Z,99497.84
2022-09-18T17:09:48.213Z,99504.00
2022-09-18T17:12:15.689Z,99490.72
2022-09-18T17:14:42.537Z,99496.34
2022-09-18T17:17:09.611Z,99505.16
2022-09-18T17:19:37.629Z,99505.19
2022-09-18T17:22:05.803Z,99513.91
2022-09-18T17:24:32.704Z,99509.41
2022-09-18T17:27:00.024Z,99516.56
2022-09-18T17:29:27.337Z,99508.88
2022-09-18T17:32:00.607Z,99514.94
2022-09-18T17:34:29.270Z,99510.72
2022-09-18T17:36:56.458Z,99517.62
2022-09-18T17:39:23.818Z,99510.81
2022-09-18T17:41:51.969Z,99518.63
2022-09-18T17:44:22.143Z,99514.56
2022-09-18T17:46:52.831Z,99526.56
2022-09-18T17:49:20.524Z,99535.31
2022-09-18T17:51:50.522Z,99531.84
2022-09-18T17:54:18.003Z,99541.47
2022-09-18T17:56:45.724Z,99547.56
2022-09-18T17:59:14.410Z,99538.06
2022-09-18T18:01:46.295Z,99539.72
2022-09-18T18:04:14.161Z,99545.03
2022-09-18T18:06:41.276Z,99550.13
2022-09-18T18:09:09.994Z,99558.00
2022-09-18T18:11:40.862Z,99559.94
2022-09-18T18:14:07.981Z,99559.91
2022-09-18T18:16:34.918Z,99561.50
2022-09-18T18:19:04.013Z,99563.28
2022-09-18T18:21:31.596Z,99561.53
2022-09-18T18:24:02.013Z,99559.03
2022-09-18T18:26:29.506Z,99559.81
2022-09-18T18:28:56.738Z,99561.63
2022-09-18T18:31:25.920Z,99567.72
2022-09-18T18:33:53.650Z,99571.94
2022-09-18T18:36:21.920Z,99573.63
2022-09-18T18:38:49.918Z,99574.50
2022-09-18T18:41:18.012Z,99578.88
2022-09-18T18:43:46.466Z,99570.16
2022-09-18T18:46:15.810Z,99564.81
2022-09-18T18:48:43.691Z,99564.03
2022-09-18T18:51:17.087Z,99565.00
2022-09-18T18:53:44.630Z,99566.72
2022-09-18T18:56:16.043Z,99571.75
2022-09-18T18:58:44.550Z,99578.75
2022-09-18T19:01:14.932Z,99578.72
2022-09-18T19:03:45.946Z,99583.84
2022-09-18T19:06:14.973Z,99580.38
2022-09-18T19:08:43.064Z,99577.97
2022-09-18T19:11:10.283Z,99582.22
2022-09-18T19:13:44.954Z,99580.44
2022-09-18T19:16:12.739Z,99568.41
2022-09-18T19:18:40.188Z,99576.25
2022-09-18T19:21:08.368Z,99580.66
2022-09-18T19:23:36.590Z,99572.91
2022-09-18T19:26:12.410Z,99582.41
2022-09-18T19:28:39.317Z,99579.03
2022-09-18T19:31:10.220Z,99579.09
2022-09-18T19:33:38.704Z,99578.22
2022-09-18T19:36:08.268Z,99588.72
2022-09-18T19:38:38.881Z,99578.28
2022-09-18T19:41:30.340Z,99573.94
2022-09-18T19:43:57.581Z,99582.59
2022-09-18T19:46:28.545Z,99584.25
2022-09-18T19:48:55.341Z,99581.72
2022-09-18T19:51:22.799Z,99571.22
2022-09-18T19:53:49.737Z,99568.72
2022-09-18T19:56:39.211Z,99565.22
2022-09-18T19:59:04.182Z,99562.44
2022-09-18T20:01:31.102Z,99559.97
2022-09-18T20:03:58.901Z,99552.88
2022-09-18T20:06:25.700Z,99554.69
2022-09-18T20:08:52.613Z,99549.59
2022-09-18T20:11:19.620Z,99549.56
2022-09-18T20:13:49.035Z,99555.53
2022-09-18T20:16:15.887Z,99559.94
2022-09-18T20:18:43.162Z,99563.34
2022-09-18T20:21:10.867Z,99559.94
2022-09-18T20:23:37.909Z,99559.91
2022-09-18T20:26:08.557Z,99558.16
2022-09-18T20:28:36.332Z,99551.16
2022-09-18T20:31:04.549Z,99552.97
2022-09-18T20:33:31.859Z,99549.28
2022-09-18T20:35:59.095Z,99540.66
2022-09-18T20:38:32.854Z,99537.91
2022-09-18T20:41:03.667Z,99549.22
2022-09-18T20:43:33.157Z,99539.72
2022-09-18T20:46:00.651Z,99533.63
2022-09-18T20:48:34.328Z,99537.00
2022-09-18T20:51:08.674Z,99538.94
2022-09-18T20:53:38.311Z,99540.50
2022-09-18T20:56:05.841Z,99531.91
2022-09-18T20:58:34.141Z,99527.53
2022-09-18T21:01:13.135Z,99523.19
2022-09-18T21:03:41.217Z,99522.03
2022-09-18T21:06:21.729Z,99526.38
2022-09-18T21:08:50.145Z,99516.09
2022-09-18T21:11:18.646Z,99518.88
2022-09-18T21:13:47.573Z,99523.03
2022-09-18T21:16:14.914Z,99504.03
2022-09-18T21:18:42.062Z,99505.87
2022-09-18T21:21:09.871Z,99508.97
2022-09-18T21:23:57.762Z,99510.72
2022-09-18T21:26:27.572Z,99502.94
2022-09-18T21:28:55.681Z,99496.78
2022-09-18T21:31:23.082Z,99501.91
2022-09-18T21:33:53.076Z,99499.47
2022-09-18T21:36:21.843Z,99498.59
2022-09-18T21:38:50.901Z,99488.13
2022-09-18T21:41:18.507Z,99483.75
2022-09-18T21:43:47.454Z,99470.50
2022-09-18T21:46:15.078Z,99470.47
2022-09-18T21:48:42.495Z,99472.41
2022-09-18T21:51:11.058Z,99468.88
2022-09-18T21:53:41.584Z,99469.50
2022-09-18T21:56:10.410Z,99470.50
2022-09-18T21:58:40.501Z,99467.75
2022-09-18T22:01:15.626Z,99471.97
2022-09-18T22:03:50.478Z,99476.41
2022-09-18T22:06:18.254Z,99476.59
2022-09-18T22:08:48.784Z,99474.66
2022-09-18T22:11:16.287Z,99465.84
2022-09-18T22:13:43.047Z,99471.41
2022-09-18T22:16:10.149Z,99464.97
2022-09-18T22:18:38.217Z,99466.03
2022-09-18T22:21:05.877Z,99456.22
2022-09-18T22:23:32.847Z,99452.84
2022-09-18T22:26:04.568Z,99466.66
2022-09-18T22:28:31.367Z,99470.28
2022-09-18T22:30:58.468Z,99464.09
2022-09-18T22:33:25.605Z,99463.16
2022-09-18T22:35:52.326Z,99472.03
2022-09-18T22:38:19.292Z,99460.66
2022-09-18T22:40:46.306Z,99470.81
2022-09-18T22:43:16.698Z,99467.06
2022-09-18T22:45:44.512Z,99475.53
2022-09-18T22:48:11.301Z,99473.13
2022-09-18T22:50:37.990Z,99472.34
2022-09-18T22:53:05.031Z,99467.06
2022-09-18T22:55:31.883Z,99457.28
2022-09-18T22:57:58.564Z,99471.22
2022-09-18T23:00:26.105Z,99467.81
2022-09-18T23:03:01.117Z,99467.06
2022-09-18T23:05:28.200Z,99458.13
2022-09-18T23:07:54.947Z,99454.53
2022-09-18T23:10:22.098Z,99466.84
2022-09-18T23:12:49.140Z,99467.03
2022-09-18T23:15:15.883Z,99468.78
2022-09-18T23:17:44.179Z,99471.22
2022-09-18T23:20:11.214Z,99469.31
2022-09-18T23:22:37.863Z,99464.16
2022-09-18T23:25:04.726Z,99474.66
2022-09-18T23:27:31.685Z,99465.03
2022-09-18T23:29:58.448Z,99466.91
2022-09-18T23:32:25.129Z,99466.41
2022-09-18T23:34:52.144Z,99470.75
2022-09-18T23:37:19.149Z,99461.63
2022-09-18T23:39:45.947Z,99460.16
2022-09-18T23:42:27.878Z,99455.75
2022-09-18T23:44:55.064Z,99454.88
2022-09-18T23:47:21.817Z,99458.19
2022-09-18T23:49:48.648Z,99460.06
2022-09-18T23:52:18.040Z,99455.56
2022-09-18T23:54:44.725Z,99449.50
2022-09-18T23:57:11.405Z,99454.63
2022-09-18T23:59:38.540Z,99438.88
